Time;durP1;ratioP1;P1;durP2;ratioP2;P2;SDS_P1;SDS_P2;PMS_P1;PMS_P2;Temp;Humidity;BMP_temperature;BMP_pressure;BME280_temperature;BME280_humidity;BME280_pressure;Samples;Min_cycle;Max_cycle;Signal;HPM_P1;HPM_P2
2021/05/14 12:49:58;;;;;;;;;2.25;1.00;;;;;19.22;50.78;100635.72;5024091;27;45987;-49
2021/05/14 12:52:26;;;;;;;;;1.00;0.25;;;;;19.42;50.17;100638.75;5026822;28;45823;-45
2021/05/14 12:54:52;;;;;;;;;1.00;1.00;;;;;19.61;49.53;100656.78;5021637;28;45863;-45
2021/05/14 12:57:37;;;;;;;;;0.00;0.00;;;;;19.90;48.40;100662.63;5015946;28;45681;-47
2021/05/14 13:00:17;;;;;;;;;0.00;0.00;;;;;20.23;47.89;100659.41;5017111;28;46473;-67
2021/05/14 13:05:05;;;;;;;;;0.50;0.50;;;;;19.14;45.40;100659.22;5087368;27;46261;-55
2021/05/14 13:07:31;;;;;;;;;0.75;0.75;;;;;17.77;48.62;100669.94;5064823;27;45945;-58
2021/05/14 13:09:58;;;;;;;;;0.25;0.25;;;;;16.70;53.40;100672.06;5055263;28;45591;-57
2021/05/14 13:12:24;;;;;;;;;1.00;0.00;;;;;16.03;55.01;100675.91;5057032;27;45734;-56
2021/05/14 13:14:49;;;;;;;;;1.00;1.00;;;;;15.65;56.83;100671.00;5061045;27;47237;-56
2021/05/14 13:17:15;;;;;;;;;1.00;1.00;;;;;15.42;58.02;100675.72;5055179;27;45908;-59
2021/05/14 13:19:41;;;;;;;;;3.00;1.00;;;;;15.30;57.82;100677.22;5047445;27;45794;-57
2021/05/14 13:22:07;;;;;;;;;1.25;1.25;;;;;15.23;59.37;100679.34;5054870;28;45404;-58
2021/05/14 13:24:33;;;;;;;;;2.00;2.00;;;;;15.31;61.47;100688.59;5056072;27;46335;-57
2021/05/14 13:26:59;;;;;;;;;3.00;1.75;;;;;15.33;61.45;100676.19;5051399;28;45750;-57
2021/05/14 13:29:24;;;;;;;;;1.00;1.00;;;;;15.39;60.35;100665.38;5054323;27;45475;-58
2021/05/14 13:31:50;;;;;;;;;0.25;0.25;;;;;15.80;61.10;100674.53;5050228;28;45556;-57
2021/05/14 13:34:16;;;;;;;;;2.00;2.00;;;;;16.30;60.68;100659.44;5057177;27;46062;-56
2021/05/14 13:36:41;;;;;;;;;1.00;1.00;;;;;16.85;58.14;100667.66;5050305;28;45562;-57
2021/05/14 13:39:09;;;;;;;;;2.75;2.75;;;;;17.23;60.22;100666.28;5053572;27;48073;-55
2021/05/14 13:41:34;;;;;;;;;0.50;0.50;;;;;17.50;55.86;100672.56;5055899;27;45597;-56
2021/05/14 13:44:05;;;;;;;;;3.25;3.25;;;;;17.49;55.71;100669.06;5050380;28;46810;-56
2021/05/14 13:46:31;;;;;;;;;3.00;1.00;;;;;17.33;57.30;100673.63;5051091;28;45665;-56
2021/05/14 13:48:57;;;;;;;;;1.00;1.00;;;;;17.24;56.82;100673.25;5057944;27;47706;-56
2021/05/14 13:51:22;;;;;;;;;1.25;1.25;;;;;17.23;56.78;100673.38;5051223;28;45615;-58
2021/05/14 13:53:48;;;;;;;;;1.00;1.00;;;;;17.24;55.04;100690.91;5052312;28;46562;-59
2021/05/14 13:56:14;;;;;;;;;3.00;1.00;;;;;17.64;59.75;100676.97;5055273;28;45519;-56
2021/05/14 13:58:41;;;;;;;;;0.00;0.00;;;;;18.61;52.62;100681.31;5051440;28;45816;-50
2021/05/14 14:02:14;;;;;;;;;0.00;0.00;;;;;21.31;46.43;100683.94;5002648;27;45936;-92
2021/05/14 14:06:07;;;;;;;;;0.50;0.50;;;;;21.19;41.91;100683.94;5107941;27;768953;-43
2021/05/14 14:08:33;;;;;;;;;1.25;1.00;;;;;21.47;43.55;100672.94;5121580;27;45810;-42
2021/05/14 14:10:58;;;;;;;;;0.75;0.00;;;;;21.57;43.62;100665.06;5127189;27;45675;-43
2021/05/14 14:13:24;;;;;;;;;0.75;0.75;;;;;21.69;42.32;100690.66;5117923;27;45697;-43
2021/05/14 14:15:52;;;;;;;;;1.00;1.00;;;;;21.57;41.33;100689.81;5115332;27;46267;-44
2021/05/14 14:18:18;;;;;;;;;1.00;1.00;;;;;21.51;40.42;100683.19;5117586;27;45664;-42
2021/05/14 14:20:43;;;;;;;;;0.00;0.00;;;;;20.47;42.42;100685.03;5118057;27;45857;-45
2021/05/14 14:23:09;;;;;;;;;1.00;1.00;;;;;19.16;45.20;100678.50;5117033;27;45732;-43
2021/05/14 14:25:35;;;;;;;;;2.50;2.00;;;;;17.87;49.68;100682.56;5122499;27;46284;-42
2021/05/14 14:28:00;;;;;;;;;0.75;0.75;;;;;17.05;52.47;100720.22;5116440;27;45627;-42
2021/05/14 14:30:26;;;;;;;;;0.50;0.50;;;;;16.38;56.56;100702.94;5120184;27;45726;-47
2021/05/14 14:32:53;;;;;;;;;1.00;1.00;;;;;15.88;58.46;100708.34;5129739;27;45547;-43
2021/05/14 14:35:18;;;;;;;;;0.00;0.00;;;;;15.53;59.65;100701.47;5129857;27;46481;-43
2021/05/14 14:37:44;;;;;;;;;1.00;1.00;;;;;15.15;61.26;100702.56;5129641;27;45520;-45
2021/05/14 14:40:12;;;;;;;;;1.00;1.00;;;;;14.93;62.55;100701.06;5126008;27;45640;-43
2021/05/14 14:42:41;;;;;;;;;1.75;0.00;;;;;14.79;62.20;100709.69;5109851;27;45595;-43
2021/05/14 14:45:08;;;;;;;;;0.00;0.00;;;;;14.75;61.17;100700.22;5110004;27;47226;-43
2021/05/14 14:47:35;;;;;;;;;1.00;1.00;;;;;15.68;63.07;100697.13;5109296;27;45834;-43
2021/05/14 14:50:01;;;;;;;;;1.25;1.00;;;;;17.82;56.43;100689.94;5108484;27;45564;-43
2021/05/14 14:52:27;;;;;;;;;1.00;1.00;;;;;17.58;55.81;100701.16;5109602;27;45932;-43
2021/05/14 14:54:53;;;;;;;;;3.00;2.00;;;;;16.77;57.75;100711.25;5108743;27;47893;-44
2021/05/14 14:57:20;;;;;;;;;2.00;2.00;;;;;15.99;60.24;100711.28;5109179;27;45550;-43
2021/05/14 14:59:45;;;;;;;;;2.00;1.75;;;;;15.23;58.77;100713.56;5126284;27;45834;-47
2021/05/14 15:02:11;;;;;;;;;1.00;1.00;;;;;14.82;58.92;100729.69;5128567;27;45503;-44
2021/05/14 15:04:36;;;;;;;;;0.75;0.75;;;;;14.63;58.82;100722.69;5129228;27;46680;-43
2021/05/14 15:07:02;;;;;;;;;1.00;0.00;;;;;14.70;59.84;100718.84;5118185;27;45682;-43
2021/05/14 15:09:27;;;;;;;;;2.00;0.00;;;;;14.98;56.43;100735.00;5108387;27;45593;-44
2021/05/14 15:11:53;;;;;;;;;2.00;0.00;;;;;16.98;52.85;100738.16;5108113;27;45625;-43
2021/05/14 15:14:18;;;;;;;;;0.00;0.00;;;;;16.69;52.79;100735.44;5114245;27;47148;-44
2021/05/14 15:16:45;;;;;;;;;0.25;0.25;;;;;15.76;55.69;100733.59;5119832;27;45428;-44
2021/05/14 15:19:11;;;;;;;;;0.75;0.75;;;;;15.21;56.33;100730.34;5108216;27;45553;-43
2021/05/14 15:21:37;;;;;;;;;1.00;1.00;;;;;14.84;58.48;100733.97;5097002;27;45520;-43
2021/05/14 15:24:04;;;;;;;;;0.00;0.00;;;;;14.63;59.13;100735.84;5114313;27;47156;-41
2021/05/14 15:26:31;;;;;;;;;0.00;0.00;;;;;14.45;59.83;100746.34;5114984;27;45761;-43
2021/05/14 15:28:58;;;;;;;;;1.00;0.75;;;;;14.28;60.27;100746.34;5115024;27;45661;-44
2021/05/14 15:31:23;;;;;;;;;1.00;1.00;;;;;14.11;61.01;100752.38;5115122;27;45453;-44
2021/05/14 15:33:48;;;;;;;;;1.00;1.00;;;;;13.90;62.47;100758.56;5114326;27;45685;-46
2021/05/14 15:36:14;;;;;;;;;2.50;2.00;;;;;13.71;62.08;100757.72;5115304;27;45517;-44
2021/05/14 15:38:40;;;;;;;;;0.00;0.00;;;;;13.69;63.76;100763.03;5115132;27;45662;-43
2021/05/14 15:41:05;;;;;;;;;1.50;1.00;;;;;13.64;62.88;100773.75;5115674;27;45588;-43
2021/05/14 15:43:31;;;;;;;;;1.75;1.75;;;;;13.62;63.74;100766.88;5115231;27;46178;-43
2021/05/14 15:45:57;;;;;;;;;1.00;1.00;;;;;13.65;61.61;100766.72;5114140;27;45773;-43
2021/05/14 15:48:23;;;;;;;;;1.00;1.00;;;;;13.70;62.65;100772.59;5115157;27;45561;-44
2021/05/14 15:50:49;;;;;;;;;0.00;0.00;;;;;13.69;60.30;100768.28;5115483;27;45490;-43
2021/05/14 15:53:16;;;;;;;;;1.00;1.00;;;;;13.73;61.10;100769.00;5115085;27;46997;-43
2021/05/14 15:55:42;;;;;;;;;0.00;0.00;;;;;13.82;61.58;100765.94;5114685;27;46671;-47
2021/05/14 15:58:07;;;;;;;;;1.00;1.00;;;;;13.89;60.75;100756.84;5113514;27;45681;-44
2021/05/14 16:00:33;;;;;;;;;3.00;2.00;;;;;14.33;60.89;100755.69;5114232;27;45718;-44
2021/05/14 16:03:00;;;;;;;;;1.00;1.00;;;;;14.78;60.46;100762.34;5114090;27;47155;-44
2021/05/14 16:05:26;;;;;;;;;1.25;1.25;;;;;15.86;59.67;100774.28;5114485;27;45486;-42
2021/05/14 16:07:52;;;;;;;;;0.00;0.00;;;;;16.65;57.65;100763.78;5113681;27;45505;-42
2021/05/14 16:10:20;;;;;;;;;1.50;1.50;;;;;16.64;53.68;100761.22;5096324;27;45803;-42
2021/05/14 16:12:47;;;;;;;;;2.00;2.00;;;;;16.43;53.65;100762.41;5110325;27;46551;-43
2021/05/14 16:15:15;;;;;;;;;1.00;0.00;;;;;16.22;56.01;100764.44;5114679;27;45439;-42
2021/05/14 16:17:44;;;;;;;;;1.00;1.00;;;;;16.20;55.71;100759.28;5114947;27;45450;-43
2021/05/14 16:20:11;;;;;;;;;1.00;1.00;;;;;16.23;56.31;100760.03;5113983;27;45575;-42
2021/05/14 16:22:37;;;;;;;;;2.00;2.00;;;;;16.48;55.03;100767.38;5114485;27;47133;-43
2021/05/14 16:25:04;;;;;;;;;1.00;1.00;;;;;16.84;55.85;100762.72;5114760;27;45466;-43
2021/05/14 16:27:30;;;;;;;;;3.00;2.25;;;;;17.75;53.94;100759.03;5113965;27;45572;-43
2021/05/14 16:29:59;;;;;;;;;3.00;3.00;;;;;18.13;53.44;100754.06;5113623;27;45456;-43
2021/05/14 16:32:25;;;;;;;;;3.00;3.00;;;;;17.74;52.08;100753.84;5114168;27;46302;-42
2021/05/14 16:34:51;;;;;;;;;3.00;3.00;;;;;17.18;54.15;100751.97;5114326;27;45931;-42
2021/05/14 16:37:17;;;;;;;;;3.50;3.50;;;;;16.60;54.71;100753.53;5114282;27;45452;-42
2021/05/14 16:39:43;;;;;;;;;2.50;1.75;;;;;16.13;56.22;100757.91;5114414;27;45430;-43
2021/05/14 16:42:11;;;;;;;;;3.00;2.00;;;;;15.79;57.30;100760.59;5113524;27;46076;-43
2021/05/14 16:44:41;;;;;;;;;4.25;4.25;;;;;15.37;59.48;100754.94;5093924;27;45547;-42
2021/05/14 16:47:07;;;;;;;;;2.00;2.00;;;;;15.18;60.46;100764.72;5093669;27;45585;-42
2021/05/14 16:49:33;;;;;;;;;3.25;3.00;;;;;15.09;62.15;100772.16;5093884;27;45566;-43
2021/05/14 16:51:59;;;;;;;;;4.00;4.00;;;;;14.98;61.94;100763.94;5092538;27;46013;-43
2021/05/14 16:54:25;;;;;;;;;6.75;6.75;;;;;14.93;61.08;100769.47;5093434;27;45759;-42
2021/05/14 16:56:51;;;;;;;;;3.75;3.75;;;;;15.00;62.64;100762.94;5093467;27;45443;-43
2021/05/14 16:59:17;;;;;;;;;3.00;3.00;;;;;15.15;61.75;100765.72;5107762;27;45430;-42
2021/05/14 17:01:43;;;;;;;;;5.50;3.75;;;;;15.26;60.85;100762.53;5113129;27;46131;-43
2021/05/14 17:04:09;;;;;;;;;4.00;3.50;;;;;15.37;60.89;100765.47;5112561;27;45533;-43
2021/05/14 17:06:52;;;;;;;;;6.00;4.00;;;;;16.39;60.18;100752.97;5114144;27;45808;-42
2021/05/14 17:09:19;;;;;;;;;5.00;4.00;;;;;16.84;57.82;100763.56;5113931;27;45728;-42
2021/05/14 17:11:46;;;;;;;;;4.00;4.00;;;;;17.04;58.35;100758.94;5113565;27;46377;-44
2021/05/14 17:14:12;;;;;;;;;5.50;5.00;;;;;18.62;54.99;100760.59;5113224;27;46062;-42
2021/05/14 17:16:41;;;;;;;;;6.00;6.00;;;;;19.83;52.56;100755.94;5113687;27;45492;-43
2021/05/14 17:19:08;;;;;;;;;9.50;6.00;;;;;19.60;50.29;100758.44;5114018;27;45908;-43
2021/05/14 17:21:35;;;;;;;;;5.50;5.00;;;;;18.56;52.09;100761.81;5113393;27;47099;-43
2021/05/14 17:24:02;;;;;;;;;3.25;3.25;;;;;17.79;53.65;100759.69;5112836;27;45791;-43
2021/05/14 17:26:27;;;;;;;;;7.00;6.25;;;;;17.36;54.53;100768.50;5113992;27;45582;-43
2021/05/14 17:28:53;;;;;;;;;4.00;4.00;;;;;17.13;54.63;100765.44;5106431;27;45433;-42
2021/05/14 17:31:19;;;;;;;;;7.00;6.50;;;;;17.22;55.94;100779.88;5092684;27;50786;-43
2021/05/14 17:33:46;;;;;;;;;6.25;4.50;;;;;20.24;53.41;100777.78;5102886;27;45721;-46
2021/05/14 17:36:11;;;;;;;;;6.50;6.00;;;;;23.03;45.55;100777.34;5113301;27;45511;-42
2021/05/14 17:38:37;;;;;;;;;7.50;7.00;;;;;25.11;40.90;100771.44;5113450;27;45437;-42
2021/05/14 17:41:04;;;;;;;;;6.00;4.00;;;;;26.77;36.75;100765.19;5113623;27;47320;-43
2021/05/14 17:43:30;;;;;;;;;7.00;6.75;;;;;26.92;36.37;100760.16;5102398;27;45445;-42
2021/05/14 17:45:56;;;;;;;;;5.00;5.00;;;;;24.49;36.13;100769.94;5091961;27;45896;-42
2021/05/14 17:48:22;;;;;;;;;7.75;6.75;;;;;22.51;38.82;100765.59;5093298;27;45629;-42
